createdAt,value
2017-04-02T00:00:13.243Z,0
2017-04-02T00:01:23.592Z,0
2017-04-02T00:02:33.618Z,0
2017-04-02T00:03:43.644Z,0
2017-04-02T00:04:53.993Z,0
2017-04-02T00:06:04.326Z,0
2017-04-02T00:07:14.345Z,0
2017-04-02T00:08:24.675Z,0
2017-04-02T00:09:35.017Z,0
2017-04-02T00:10:45.380Z,0
2017-04-02T00:11:55.101Z,0
2017-04-02T00:13:05.433Z,0
2017-04-02T00:14:15.841Z,0
2017-04-02T00:15:25.869Z,0
2017-04-02T00:16:36.209Z,0
2017-04-02T00:17:46.545Z,0
2017-04-02T00:18:56.882Z,0
2017-04-02T00:20:07.226Z,0
2017-04-02T00:21:17.560Z,0
2017-04-02T00:22:27.301Z,0
2017-04-02T00:23:37.319Z,0
2017-04-02T00:24:47.662Z,0
2017-04-02T00:25:57.705Z,0
2017-04-02T00:27:08.047Z,0
2017-04-02T00:28:18.393Z,0
2017-04-02T00:29:28.481Z,0
2017-04-02T00:30:38.823Z,0
2017-04-02T00:31:48.552Z,0
2017-04-02T00:32:58.584Z,0
2017-04-02T00:34:08.613Z,0
2017-04-02T00:35:18.642Z,0
2017-04-02T00:36:28.978Z,0
2017-04-02T00:37:39.017Z,0
2017-04-02T00:38:49.058Z,0
2017-04-02T00:39:59.099Z,0
2017-04-02T00:41:08.492Z,0
2017-04-02T00:42:18.517Z,0
2017-04-02T00:43:29.098Z,0
2017-04-02T00:44:39.429Z,0
2017-04-02T00:45:49.762Z,0
2017-04-02T00:46:59.801Z,0
2017-04-02T00:48:10.142Z,0
2017-04-02T00:49:20.186Z,0
2017-04-02T00:50:30.522Z,0
2017-04-02T00:51:40.923Z,0
2017-04-02T00:52:51.257Z,0
2017-04-02T00:54:01.620Z,0
2017-04-02T00:55:11.962Z,0
2017-04-02T00:56:22.296Z,0
2017-04-02T00:57:32.618Z,0
2017-04-02T00:58:42.971Z,0
2017-04-02T00:59:53.316Z,0
2017-04-02T01:01:03.654Z,0
2017-04-02T01:02:13.381Z,0
2017-04-02T01:03:23.715Z,0
2017-04-02T01:04:34.072Z,0
2017-04-02T01:05:44.405Z,0
2017-04-02T01:06:54.737Z,0
2017-04-02T01:08:05.089Z,0
2017-04-02T01:09:15.428Z,0
2017-04-02T01:10:25.794Z,0
2017-04-02T01:11:36.139Z,0
2017-04-02T01:12:46.177Z,0
2017-04-02T01:13:56.506Z,0
2017-04-02T01:15:06.243Z,0
2017-04-02T01:16:16.588Z,0
2017-04-02T01:17:26.931Z,0
2017-04-02T01:18:36.959Z,0
2017-04-02T01:19:47.296Z,0
2017-04-02T01:20:57.020Z,0
2017-04-02T01:22:07.599Z,0
2017-04-02T01:23:17.945Z,0
2017-04-02T01:24:28.292Z,0
2017-04-02T01:25:38.619Z,0
2017-04-02T01:26:48.961Z,0
2017-04-02T01:27:58.982Z,0
2017-04-02T01:29:09.309Z,0
2017-04-02T01:30:19.642Z,0
2017-04-02T01:31:30.002Z,0
2017-04-02T01:32:40.340Z,0
2017-04-02T01:33:50.357Z,0
2017-04-02T01:35:00.696Z,0
2017-04-02T01:36:10.725Z,0
2017-04-02T01:37:21.070Z,0
2017-04-02T01:38:31.409Z,0
2017-04-02T01:39:41.434Z,0
2017-04-02T01:40:51.762Z,0
2017-04-02T01:42:02.109Z,0
2017-04-02T01:43:12.123Z,0
2017-04-02T01:44:22.469Z,0
2017-04-02T01:45:32.499Z,0
2017-04-02T01:46:42.882Z,0
2017-04-02T01:47:53.206Z,0
2017-04-02T01:49:03.240Z,0
2017-04-02T01:50:13.270Z,0
2017-04-02T01:51:23.287Z,0
2017-04-02T01:52:33.632Z,0
2017-04-02T01:53:43.667Z,0
2017-04-02T01:54:53.995Z,0
2017-04-02T01:56:04.344Z,0
2017-04-02T01:57:14.691Z,0
2017-04-02T01:58:25.028Z,0
2017-04-02T01:59:35.109Z,0
2017-04-02T02:00:45.441Z,0
2017-04-02T02:01:55.779Z,0
2017-04-02T02:03:05.806Z,0
2017-04-02T02:04:16.160Z,0
2017-04-02T02:05:26.508Z,0
2017-04-02T02:06:36.530Z,0
2017-04-02T02:07:46.871Z,0
2017-04-02T02:08:57.210Z,0
2017-04-02T02:10:07.555Z,0
2017-04-02T02:11:17.944Z,0
2017-04-02T02:12:28.313Z,0
2017-04-02T02:13:38.697Z,0
2017-04-02T02:14:49.042Z,0
2017-04-02T02:15:59.384Z,0
2017-04-02T02:17:09.399Z,0
2017-04-02T02:18:19.730Z,0
2017-04-02T02:19:30.058Z,0
2017-04-02T02:20:40.394Z,0
2017-04-02T02:21:50.414Z,0
2017-04-02T02:23:00.757Z,0
2017-04-02T02:24:10.799Z,0
2017-04-02T02:25:21.132Z,0
2017-04-02T02:26:31.479Z,0
2017-04-02T02:27:41.495Z,0
2017-04-02T02:28:51.843Z,0
2017-04-02T02:30:01.576Z,0
2017-04-02T02:31:11.914Z,0
2017-04-02T02:32:21.634Z,0
2017-04-02T02:33:31.657Z,0
2017-04-02T02:34:42.004Z,0
2017-04-02T02:35:52.354Z,0
2017-04-02T02:37:02.680Z,0
2017-04-02T02:38:13.013Z,0
2017-04-02T02:39:23.024Z,0
2017-04-02T02:40:33.365Z,0
2017-04-02T02:41:43.712Z,0
2017-04-02T02:42:53.767Z,0
2017-04-02T02:44:04.105Z,0
2017-04-02T02:45:14.442Z,0
2017-04-02T02:46:24.778Z,0
2017-04-02T02:47:35.113Z,0
2017-04-02T02:48:45.441Z,0
2017-04-02T02:49:55.463Z,0
2017-04-02T02:51:05.805Z,0
2017-04-02T02:52:16.140Z,0
2017-04-02T02:53:25.853Z,0
2017-04-02T02:54:36.186Z,0
2017-04-02T02:55:46.545Z,0
2017-04-02T02:56:56.254Z,0
2017-04-02T02:58:06.590Z,0
2017-04-02T02:59:16.933Z,0
2017-04-02T03:00:27.268Z,0
2017-04-02T03:01:37.592Z,0
2017-04-02T03:32:38.887Z,0
2017-04-02T03:33:48.593Z,0
2017-04-02T03:34:58.924Z,0
2017-04-02T03:36:08.941Z,0
2017-04-02T03:37:18.957Z,0
2017-04-02T03:38:28.676Z,0
2017-04-02T03:39:38.378Z,0
2017-04-02T03:40:48.388Z,0
2017-04-02T03:41:58.731Z,0
2017-04-02T03:43:09.068Z,0
2017-04-02T03:44:19.388Z,0
2017-04-02T03:45:29.741Z,0
2017-04-02T03:46:40.073Z,0
2017-04-02T03:47:50.108Z,0
2017-04-02T03:49:00.451Z,0
2017-04-02T03:50:10.794Z,0
2017-04-02T03:51:21.125Z,0
2017-04-02T03:52:31.166Z,0
2017-04-02T03:53:41.176Z,0
2017-04-02T03:54:51.193Z,0
2017-04-02T03:56:01.200Z,0
2017-04-02T03:57:11.542Z,4
2017-04-02T03:58:21.869Z,4
2017-04-02T03:59:32.201Z,0
2017-04-02T04:00:42.231Z,0
2017-04-02T04:01:51.990Z,4
2017-04-02T04:03:02.322Z,0
2017-04-02T04:04:12.325Z,4
2017-04-02T04:05:22.333Z,4
2017-04-02T04:06:32.675Z,4
2017-04-02T04:07:43.009Z,8
2017-04-02T04:08:53.339Z,4
2017-04-02T04:10:03.682Z,8
2017-04-02T04:11:14.033Z,12
2017-04-02T04:12:24.365Z,16
2017-04-02T04:13:34.705Z,16
2017-04-02T04:14:45.028Z,20
2017-04-02T04:15:55.359Z,24
2017-04-02T04:17:05.938Z,28
2017-04-02T04:18:15.954Z,36
2017-04-02T04:19:25.981Z,44
2017-04-02T04:20:35.999Z,52
2017-04-02T04:21:46.009Z,60
2017-04-02T04:22:56.339Z,68
2017-04-02T04:24:06.659Z,80
2017-04-02T04:25:17.054Z,96
2017-04-02T04:26:27.383Z,104
2017-04-02T04:27:37.721Z,124
2017-04-02T04:28:48.070Z,140
2017-04-02T04:29:58.398Z,156
2017-04-02T04:31:08.422Z,180
2017-04-02T04:32:18.435Z,200
2017-04-02T04:33:28.469Z,220
2017-04-02T04:34:38.180Z,248
2017-04-02T04:35:48.192Z,272
2017-04-02T04:36:58.207Z,300
2017-04-02T04:38:08.551Z,328
2017-04-02T04:39:18.571Z,360
2017-04-02T04:40:28.907Z,388
2017-04-02T04:41:38.915Z,424
2017-04-02T04:42:49.293Z,456
2017-04-02T04:43:59.622Z,500
2017-04-02T04:45:09.950Z,616
2017-04-02T04:46:20.295Z,736
2017-04-02T04:47:30.352Z,760
2017-04-02T04:48:40.689Z,820
2017-04-02T04:49:51.010Z,996
2017-04-02T04:51:01.366Z,1104
2017-04-02T04:52:11.394Z,1200
2017-04-02T04:53:21.412Z,1344
2017-04-02T04:54:31.442Z,1516
2017-04-02T04:55:41.784Z,1644
2017-04-02T04:56:51.819Z,1808
2017-04-02T04:58:02.148Z,2016
2017-04-02T04:59:12.165Z,2196
2017-04-02T05:00:22.501Z,2384
2017-04-02T05:01:32.866Z,2676
2017-04-02T05:02:43.199Z,2904
2017-04-02T05:03:53.224Z,2380
2017-04-02T05:05:03.574Z,2904
2017-04-02T05:06:13.901Z,3760
2017-04-02T05:07:24.239Z,4004
2017-04-02T05:08:34.257Z,4240
2017-04-02T05:09:44.280Z,4520
2017-04-02T05:10:54.618Z,4824
2017-04-02T05:12:04.953Z,5008
2017-04-02T05:13:15.292Z,5240
2017-04-02T05:14:25.636Z,5488
2017-04-02T05:15:35.960Z,5176
2017-04-02T05:16:45.977Z,3344
2017-04-02T05:17:56.011Z,1916
2017-04-02T05:19:06.347Z,1880
2017-04-02T05:20:16.687Z,1908
2017-04-02T05:21:27.033Z,1952
2017-04-02T05:22:37.363Z,1992
2017-04-02T05:23:47.378Z,2024
2017-04-02T05:24:57.716Z,2072
2017-04-02T05:26:08.053Z,2112
2017-04-02T05:27:18.381Z,2148
2017-04-02T05:28:28.706Z,2192
2017-04-02T05:29:39.055Z,2308
2017-04-02T05:30:49.398Z,2672
2017-04-02T05:31:59.738Z,3544
2017-04-02T05:33:09.764Z,3812
2017-04-02T05:34:20.104Z,3940
2017-04-02T05:35:30.468Z,3720
2017-04-02T05:36:40.840Z,2840
2017-04-02T05:37:50.865Z,2484
2017-04-02T05:39:01.217Z,2500
2017-04-02T05:40:11.591Z,2532
2017-04-02T05:41:21.948Z,2572
2017-04-02T05:42:32.283Z,2932
2017-04-02T05:43:42.318Z,3684
2017-04-02T05:44:52.658Z,4004
2017-04-02T05:46:02.683Z,3620
2017-04-02T05:47:13.108Z,3040
2017-04-02T05:48:23.456Z,2780
2017-04-02T05:49:33.794Z,3032
2017-04-02T05:50:44.124Z,3760
2017-04-02T05:51:54.452Z,4108
2017-04-02T05:53:04.795Z,3660
2017-04-02T05:54:15.144Z,3012
2017-04-02T05:55:25.477Z,2964
2017-04-02T05:56:35.813Z,3196
2017-04-02T05:57:45.837Z,4244
2017-04-02T05:58:56.177Z,5184
2017-04-02T06:00:05.263Z,5156
2017-04-02T06:01:15.622Z,4288
2017-04-02T06:02:25.947Z,3412
2017-04-02T06:03:35.964Z,3152
2017-04-02T06:04:46.339Z,3376
2017-04-02T06:05:56.357Z,3832
2017-04-02T06:07:06.679Z,3776
2017-04-02T06:08:17.015Z,3564
2017-04-02T06:09:27.344Z,3220
2017-04-02T06:10:37.365Z,3180
2017-04-02T06:11:47.707Z,3196
2017-04-02T06:12:57.417Z,3220
2017-04-02T06:14:07.434Z,3244
2017-04-02T06:15:17.816Z,3260
2017-04-02T06:16:28.163Z,3284
2017-04-02T06:17:38.197Z,3308
2017-04-02T06:18:48.224Z,3336
2017-04-02T06:19:58.561Z,3364
2017-04-02T06:21:08.919Z,3396
2017-04-02T06:22:19.358Z,3424
2017-04-02T06:23:29.749Z,3452
2017-04-02T06:24:40.094Z,3472
2017-04-02T06:25:50.459Z,3496
2017-04-02T06:27:00.498Z,3520
2017-04-02T06:28:10.829Z,3548
2017-04-02T06:29:21.141Z,3580
2017-04-02T06:30:31.626Z,3604
2017-04-02T06:31:41.969Z,3632
2017-04-02T06:32:52.302Z,3660
2017-04-02T06:34:02.012Z,3684
2017-04-02T06:35:11.723Z,3712
2017-04-02T06:36:21.126Z,3720
2017-04-02T06:37:31.473Z,3764
2017-04-02T06:38:41.511Z,3780
2017-04-02T06:39:51.892Z,3800
2017-04-02T06:41:01.932Z,3820
2017-04-02T06:42:12.277Z,3848
2017-04-02T06:43:22.610Z,3892
2017-04-02T06:44:32.649Z,3892
2017-04-02T06:45:42.670Z,3916
2017-04-02T06:46:53.015Z,3940
2017-04-02T06:48:03.050Z,3972
2017-04-02T06:49:13.394Z,3992
2017-04-02T06:50:23.108Z,4012
2017-04-02T06:51:33.447Z,4036
2017-04-02T06:52:43.801Z,4060
2017-04-02T06:53:53.839Z,4084
2017-04-02T06:55:04.189Z,4112
2017-04-02T06:56:14.536Z,4136
2017-04-02T06:57:24.269Z,4160
2017-04-02T06:58:34.612Z,4180
2017-04-02T06:59:44.957Z,4212
2017-04-02T07:00:55.280Z,4232
2017-04-02T07:02:05.376Z,4260
2017-04-02T07:03:15.452Z,4276
2017-04-02T07:04:25.481Z,4300
2017-04-02T07:05:35.526Z,4316
2017-04-02T07:06:45.874Z,4336
2017-04-02T07:07:55.887Z,4368
2017-04-02T07:09:06.245Z,4392
2017-04-02T07:10:16.584Z,4424
2017-04-02T07:11:26.611Z,4448
2017-04-02T07:12:36.951Z,4472
2017-04-02T07:13:46.053Z,4488
2017-04-02T07:14:56.079Z,4512
2017-04-02T07:16:06.097Z,4532
2017-04-02T07:17:16.448Z,4560
2017-04-02T07:18:26.490Z,4576
2017-04-02T07:19:36.541Z,4604
2017-04-02T07:20:46.884Z,4624
2017-04-02T07:21:57.223Z,4652
2017-04-02T07:23:07.562Z,4688
2017-04-02T07:24:17.908Z,4712
2017-04-02T07:25:28.253Z,4736
2017-04-02T07:26:38.306Z,4768
2017-04-02T07:27:48.657Z,4796
2017-04-02T07:28:58.991Z,4820
2017-04-02T07:30:09.361Z,4860
2017-04-02T07:31:19.418Z,4884
2017-04-02T07:32:29.504Z,4920
2017-04-02T07:33:39.861Z,4944
2017-04-02T07:34:50.197Z,4980
2017-04-02T07:36:00.536Z,5012
2017-04-02T07:37:10.880Z,5060
2017-04-02T07:38:21.214Z,5096
2017-04-02T07:39:31.563Z,5128
2017-04-02T07:40:41.595Z,5164
2017-04-02T07:41:51.634Z,5192
2017-04-02T07:43:01.333Z,5220
2017-04-02T07:44:11.678Z,5244
2017-04-02T07:45:22.015Z,5280
2017-04-02T07:46:32.371Z,5320
2017-04-02T07:47:42.401Z,5352
2017-04-02T07:48:52.434Z,5388
2017-04-02T07:50:02.791Z,5416
2017-04-02T07:51:13.179Z,5460
2017-04-02T07:52:23.528Z,5480
2017-04-02T07:53:33.868Z,5508
2017-04-02T07:54:43.903Z,5544
2017-04-02T07:55:53.636Z,5560
2017-04-02T07:57:03.982Z,5592
2017-04-02T07:58:13.379Z,5636
2017-04-02T07:59:23.699Z,5668
2017-04-02T08:00:33.736Z,5704
2017-04-02T08:01:43.763Z,5736
2017-04-02T08:02:53.800Z,5768
2017-04-02T08:04:04.136Z,5796
2017-04-02T08:05:14.167Z,5820
2017-04-02T08:06:24.205Z,5844
2017-04-02T08:07:34.562Z,5868
2017-04-02T08:08:44.577Z,5900
2017-04-02T08:09:54.296Z,5924
2017-04-02T08:11:04.636Z,5952
2017-04-02T08:12:14.974Z,5980
2017-04-02T08:13:25.005Z,5984
2017-04-02T08:14:35.361Z,6024
2017-04-02T08:15:45.693Z,6060
2017-04-02T08:16:56.042Z,6088
2017-04-02T08:18:06.387Z,6112
2017-04-02T08:19:16.732Z,6152
2017-04-02T08:20:27.082Z,6176
2017-04-02T08:21:37.423Z,6212
2017-04-02T08:22:47.774Z,6240
2017-04-02T08:23:57.834Z,6264
2017-04-02T08:25:07.876Z,6292
2017-04-02T08:26:18.221Z,6308
2017-04-02T08:27:28.576Z,6324
2017-04-02T08:28:38.600Z,6344
2017-04-02T08:29:48.629Z,6368
2017-04-02T08:30:58.387Z,6400
2017-04-02T08:32:08.428Z,6432
2017-04-02T08:33:18.458Z,6460
2017-04-02T08:34:28.502Z,6460
2017-04-02T08:35:38.558Z,6492
2017-04-02T08:36:48.907Z,6492
2017-04-02T08:37:59.252Z,6552
2017-04-02T08:39:09.597Z,6584
2017-04-02T08:40:19.942Z,6616
2017-04-02T08:41:30.302Z,6636
2017-04-02T08:42:40.630Z,6664
2017-04-02T08:43:50.973Z,6708
2017-04-02T08:45:01.007Z,6728
2017-04-02T08:46:11.358Z,6748
2017-04-02T08:47:21.380Z,6768
2017-04-02T08:48:31.416Z,6792
2017-04-02T08:49:41.759Z,6812
2017-04-02T08:50:51.769Z,6840
2017-04-02T08:52:01.806Z,6816
2017-04-02T08:53:12.200Z,6892
2017-04-02T08:54:22.226Z,6916
2017-04-02T08:55:32.577Z,6948
2017-04-02T08:56:42.943Z,6972
2017-04-02T08:57:52.985Z,6992
2017-04-02T08:59:03.317Z,7020
2017-04-02T09:00:13.660Z,7056
2017-04-02T09:01:23.741Z,7080
2017-04-02T09:02:34.091Z,7108
2017-04-02T09:03:44.430Z,7128
2017-04-02T09:04:54.464Z,7144
2017-04-02T09:06:04.803Z,7180
2017-04-02T09:07:15.198Z,7196
2017-04-02T09:08:25.540Z,7172
2017-04-02T09:09:35.563Z,7248
2017-04-02T09:10:45.904Z,7272
2017-04-02T09:11:55.939Z,7276
2017-04-02T09:13:05.973Z,7316
2017-04-02T09:14:16.049Z,7344
2017-04-02T09:15:26.397Z,7380
2017-04-02T09:16:36.758Z,7400
2017-04-02T09:17:47.174Z,7420
2017-04-02T09:18:57.517Z,7428
2017-04-02T09:20:07.897Z,7464
2017-04-02T09:21:17.946Z,7500
2017-04-02T09:22:28.302Z,7548
2017-04-02T09:23:38.339Z,7576
2017-04-02T09:24:48.686Z,7592
2017-04-02T09:25:58.737Z,7608
2017-04-02T09:27:09.080Z,7656
2017-04-02T09:28:18.809Z,7676
2017-04-02T09:29:29.169Z,7680
2017-04-02T09:30:39.528Z,7704
2017-04-02T09:31:49.558Z,7716
2017-04-02T09:32:59.591Z,7720
2017-04-02T09:34:09.939Z,7740
2017-04-02T09:35:20.360Z,7776
2017-04-02T09:36:30.426Z,7776
2017-04-02T09:37:40.476Z,7768
2017-04-02T09:38:50.827Z,7808
2017-04-02T09:40:01.175Z,7848
2017-04-02T09:41:11.516Z,7876
2017-04-02T09:42:21.548Z,7904
2017-04-02T09:43:31.903Z,7916
2017-04-02T09:44:42.258Z,7920
2017-04-02T09:45:52.618Z,7940
2017-04-02T09:47:02.654Z,7956
2017-04-02T09:48:13.009Z,7984
2017-04-02T09:49:23.371Z,7980
2017-04-02T09:50:33.719Z,7960
2017-04-02T09:51:44.098Z,7972
2017-04-02T09:52:54.451Z,8096
2017-04-02T09:54:04.168Z,8108
2017-04-02T09:55:14.521Z,8116
2017-04-02T09:56:24.866Z,8144
2017-04-02T09:57:35.213Z,8172
2017-04-02T09:58:45.555Z,8196
2017-04-02T09:59:55.890Z,8196
2017-04-02T10:01:06.269Z,8228
2017-04-02T10:02:16.614Z,8260
2017-04-02T10:03:26.665Z,8256
2017-04-02T10:04:37.027Z,8268
2017-04-02T10:05:47.381Z,8276
2017-04-02T10:06:57.425Z,8236
2017-04-02T10:08:07.475Z,8300
2017-04-02T10:09:18.061Z,8332
2017-04-02T10:10:28.472Z,8376
2017-04-02T10:11:38.520Z,8340
2017-04-02T10:12:48.885Z,8372
2017-04-02T10:13:59.286Z,8364
2017-04-02T10:15:09.681Z,8372
2017-04-02T10:16:20.064Z,8372
2017-04-02T10:17:30.438Z,8392
2017-04-02T10:18:40.494Z,8396
2017-04-02T10:19:50.880Z,8424
2017-04-02T10:21:00.954Z,8440
2017-04-02T10:22:11.020Z,8456
2017-04-02T10:23:21.382Z,8476
2017-04-02T10:24:31.778Z,8476
2017-04-02T10:25:41.529Z,8508
2017-04-02T10:26:51.887Z,8520
2017-04-02T10:28:02.252Z,8552
2017-04-02T10:29:12.336Z,8544
2017-04-02T10:30:22.740Z,8508
2017-04-02T10:31:33.122Z,8524
2017-04-02T10:32:43.481Z,8548
2017-04-02T10:33:53.853Z,8548
2017-04-02T10:35:04.449Z,8568
2017-04-02T10:36:14.505Z,8576
2017-04-02T10:37:24.885Z,8600
2017-04-02T10:38:35.252Z,8564
2017-04-02T10:39:45.545Z,8596
2017-04-02T10:40:55.960Z,8580
2017-04-02T10:42:06.020Z,8600
2017-04-02T10:43:16.380Z,8588
2017-04-02T10:44:26.979Z,8636
2017-04-02T10:45:37.335Z,8668
2017-04-02T10:46:47.097Z,8660
2017-04-02T10:47:57.143Z,8676
2017-04-02T10:49:07.472Z,8688
2017-04-02T10:50:17.831Z,8696
2017-04-02T10:51:28.267Z,8676
2017-04-02T10:52:38.623Z,8644
2017-04-02T10:53:48.676Z,8680
2017-04-02T10:54:59.039Z,8628
2017-04-02T10:56:09.395Z,8688
2017-04-02T10:57:19.445Z,8720
2017-04-02T10:58:29.816Z,8752
2017-04-02T10:59:39.877Z,8804
2017-04-02T11:00:50.262Z,8768
2017-04-02T11:02:00.333Z,8788
2017-04-02T11:03:10.705Z,8744
2017-04-02T11:04:21.075Z,8772
2017-04-02T11:05:31.444Z,8808
2017-04-02T11:06:41.825Z,8824
2017-04-02T11:07:51.852Z,8820
2017-04-02T11:09:01.644Z,8856
2017-04-02T11:10:11.727Z,8876
2017-04-02T11:11:21.785Z,8880
2017-04-02T11:12:32.148Z,8856
2017-04-02T11:13:42.526Z,8900
2017-04-02T11:14:52.572Z,8876
2017-04-02T11:16:02.623Z,8876
2017-04-02T11:17:12.985Z,8900
2017-04-02T11:18:23.363Z,8912
2017-04-02T11:19:33.761Z,8896
2017-04-02T11:20:44.236Z,8896
2017-04-02T11:21:54.606Z,8880
2017-04-02T11:23:04.988Z,8900
2017-04-02T11:24:15.384Z,8920
2017-04-02T11:25:25.739Z,8892
2017-04-02T11:26:35.799Z,8932
2017-04-02T11:27:46.167Z,8964
2017-04-02T11:28:56.543Z,8984
2017-04-02T11:30:06.906Z,8996
2017-04-02T11:31:16.963Z,9044
2017-04-02T11:32:26.710Z,9036
2017-04-02T11:33:37.063Z,9036
2017-04-02T11:34:47.470Z,9068
2017-04-02T11:42:18.329Z,9112
2017-04-02T11:43:28.412Z,9100
2017-04-02T11:44:38.776Z,9092
2017-04-02T11:45:48.822Z,9104
2017-04-02T11:46:59.165Z,9108
2017-04-02T11:48:09.526Z,9092
2017-04-02T11:49:19.888Z,9080
2017-04-02T11:50:29.634Z,9084
2017-04-02T11:51:39.663Z,9088
2017-04-02T11:52:50.058Z,9068
2017-04-02T11:54:00.406Z,9104
2017-04-02T11:55:10.454Z,9056
2017-04-02T11:56:20.795Z,9136
2017-04-02T11:57:31.176Z,9148
2017-04-02T11:58:41.227Z,9148
2017-04-02T11:59:51.269Z,9132
2017-04-02T12:01:01.629Z,9132
2017-04-02T12:02:11.667Z,9172
2017-04-02T12:03:22.024Z,9188
2017-04-02T12:04:32.397Z,9192
2017-04-02T12:05:42.446Z,9200
2017-04-02T12:06:52.485Z,9224
2017-04-02T12:08:02.848Z,9272
2017-04-02T12:09:12.568Z,9332
2017-04-02T12:10:22.602Z,9248
2017-04-02T12:11:32.996Z,9308
2017-04-02T12:12:43.023Z,9316
2017-04-02T12:13:52.745Z,9340
2017-04-02T12:15:02.811Z,9360
2017-04-02T12:16:13.180Z,9372
2017-04-02T12:17:23.545Z,9428
2017-04-02T12:18:33.588Z,9416
2017-04-02T12:19:43.318Z,9380
2017-04-02T12:20:53.359Z,9396
2017-04-02T12:22:03.724Z,9412
2017-04-02T12:23:14.073Z,9432
2017-04-02T12:24:24.429Z,9460
2017-04-02T12:25:34.157Z,9400
2017-04-02T12:26:44.214Z,9400
2017-04-02T12:27:54.251Z,9416
2017-04-02T12:29:04.314Z,9416
2017-04-02T12:30:14.048Z,9292
2017-04-02T12:31:24.413Z,9360
2017-04-02T12:32:34.450Z,9324
2017-04-02T12:33:44.484Z,9276
2017-04-02T12:34:54.536Z,9244
2017-04-02T12:36:04.894Z,9316
2017-04-02T12:37:15.258Z,9244
2017-04-02T12:38:24.395Z,9196
2017-04-02T12:39:34.438Z,9156
2017-04-02T12:40:44.513Z,9100
2017-04-02T12:41:54.555Z,9040
2017-04-02T12:43:04.902Z,8988
2017-04-02T12:44:15.231Z,8868
2017-04-02T12:45:25.601Z,8832
2017-04-02T12:46:35.642Z,8836
2017-04-02T12:47:45.989Z,8756
2017-04-02T12:48:56.336Z,8736
2017-04-02T12:50:06.406Z,8720
2017-04-02T12:51:16.450Z,8672
2017-04-02T12:52:26.510Z,8688
2017-04-02T12:53:36.533Z,8684
2017-04-02T12:54:46.584Z,8640
2017-04-02T12:55:56.933Z,8588
2017-04-02T12:57:07.288Z,8572
2017-04-02T12:58:17.339Z,8556
2017-04-02T12:59:27.697Z,8500
2017-04-02T13:00:38.028Z,8492
2017-04-02T13:01:47.778Z,8472
2017-04-02T13:02:58.129Z,8492
2017-04-02T13:04:08.177Z,8408
2017-04-02T13:05:18.541Z,8380
2017-04-02T13:06:28.896Z,8408
2017-04-02T13:07:38.669Z,8428
2017-04-02T13:08:48.377Z,8400
2017-04-02T13:09:58.410Z,8352
2017-04-02T13:11:08.807Z,8360
2017-04-02T13:12:19.174Z,8328
2017-04-02T13:13:29.204Z,8296
2017-04-02T13:14:39.569Z,8280
2017-04-02T13:15:49.922Z,8192
2017-04-02T13:16:59.957Z,8248
2017-04-02T13:18:10.299Z,8268
2017-04-02T13:19:20.341Z,8236
2017-04-02T13:20:30.382Z,8216
2017-04-02T13:21:40.794Z,8208
2017-04-02T13:22:51.140Z,8104
2017-04-02T13:24:00.880Z,8040
2017-04-02T13:25:11.240Z,7992
2017-04-02T13:26:21.586Z,7964
2017-04-02T13:27:31.967Z,8056
2017-04-02T13:28:42.368Z,7988
2017-04-02T13:29:52.726Z,7952
2017-04-02T13:31:03.096Z,7980
2017-04-02T13:32:13.144Z,7940
2017-04-02T13:33:23.491Z,7940
2017-04-02T13:34:33.544Z,7920
2017-04-02T13:35:43.596Z,7904
2017-04-02T13:36:53.957Z,7824
2017-04-02T13:38:04.298Z,7760
2017-04-02T13:39:14.646Z,7736
2017-04-02T13:40:24.975Z,7732
2017-04-02T13:41:35.326Z,7748
2017-04-02T13:42:45.367Z,7756
2017-04-02T13:43:55.721Z,7700
2017-04-02T13:45:05.760Z,7656
2017-04-02T13:46:16.161Z,7592
2017-04-02T13:47:26.233Z,7584
2017-04-02T13:48:36.297Z,7552
2017-04-02T13:49:46.886Z,7544
2017-04-02T13:50:57.241Z,7528
2017-04-02T13:52:07.602Z,7480
2017-04-02T13:53:17.965Z,7440
2017-04-02T13:54:28.018Z,7420
2017-04-02T13:55:38.373Z,7404
2017-04-02T13:56:48.755Z,7344
2017-04-02T13:57:58.804Z,7320
2017-04-02T13:59:09.140Z,7300
2017-04-02T14:00:19.499Z,7216
2017-04-02T14:01:29.548Z,7224
2017-04-02T14:02:39.876Z,7188
2017-04-02T14:03:49.580Z,7196
2017-04-02T14:04:59.624Z,7128
2017-04-02T14:06:09.995Z,7100
2017-04-02T14:07:20.337Z,7072
2017-04-02T14:08:30.369Z,7032
2017-04-02T14:09:40.416Z,7024
2017-04-02T14:10:50.451Z,6968
2017-04-02T14:12:00.729Z,6996
2017-04-02T14:13:11.018Z,6996
2017-04-02T14:14:21.377Z,6980
2017-04-02T14:15:31.808Z,6964
2017-04-02T14:16:42.174Z,6956
2017-04-02T14:17:52.532Z,6908
2017-04-02T14:19:02.574Z,6840
2017-04-02T14:20:12.600Z,6824
2017-04-02T14:21:22.957Z,6784
2017-04-02T14:22:33.003Z,6756
2017-04-02T14:23:43.390Z,6736
2017-04-02T14:24:53.746Z,6696
2017-04-02T14:26:04.130Z,6656
2017-04-02T14:27:14.181Z,6616
2017-04-02T14:28:24.546Z,6564
2017-04-02T14:29:34.910Z,6540
2017-04-02T14:30:44.954Z,6508
2017-04-02T14:31:55.365Z,6484
2017-04-02T14:33:05.712Z,6460
2017-04-02T14:34:16.076Z,6444
2017-04-02T14:35:26.436Z,6416
2017-04-02T14:36:36.507Z,6412
2017-04-02T14:37:46.856Z,6360
2017-04-02T14:38:56.882Z,6312
2017-04-02T14:40:06.926Z,6256
2017-04-02T14:41:17.270Z,6216
2017-04-02T14:42:27.630Z,6192
2017-04-02T14:43:37.691Z,6148
2017-04-02T14:44:48.041Z,6072
2017-04-02T14:45:58.074Z,6052
2017-04-02T14:47:08.421Z,6024
2017-04-02T14:48:18.770Z,6004
2017-04-02T14:49:29.136Z,5972
2017-04-02T14:50:39.167Z,5912
2017-04-02T14:51:49.523Z,5860
2017-04-02T14:52:59.870Z,5788
2017-04-02T14:54:09.898Z,5748
2017-04-02T14:55:20.240Z,5708
2017-04-02T14:56:30.594Z,5696
2017-04-02T14:57:40.936Z,5672
2017-04-02T14:58:50.992Z,5616
2017-04-02T15:00:01.358Z,5564
2017-04-02T15:01:11.731Z,5508
2017-04-02T15:02:21.766Z,5460
2017-04-02T15:03:32.109Z,5408
2017-04-02T15:04:42.464Z,5372
2017-04-02T15:05:52.834Z,5376
2017-04-02T15:07:02.882Z,5312
2017-04-02T15:08:13.261Z,5256
2017-04-02T15:09:23.620Z,5212
2017-04-02T15:10:33.995Z,5172
2017-04-02T15:11:44.042Z,5128
2017-04-02T15:12:54.399Z,5084
2017-04-02T15:14:04.872Z,5024
2017-04-02T15:15:15.601Z,4988
2017-04-02T15:16:25.952Z,4952
2017-04-02T15:17:35.969Z,4912
2017-04-02T15:18:46.357Z,4876
2017-04-02T15:19:56.417Z,4856
2017-04-02T15:21:07.027Z,4852
2017-04-02T15:22:17.058Z,4824
2017-04-02T15:23:27.290Z,4780
2017-04-02T15:24:38.134Z,4744
2017-04-02T15:25:50.573Z,4720
2017-04-02T15:27:01.628Z,4680
2017-04-02T15:28:13.306Z,4692
2017-04-02T15:29:24.547Z,4676
2017-04-02T15:30:35.408Z,4540
2017-04-02T15:31:45.703Z,4496
2017-04-02T15:32:56.042Z,4456
2017-04-02T15:34:06.075Z,4428
2017-04-02T15:35:16.115Z,4388
2017-04-02T15:36:26.176Z,4344
2017-04-02T15:37:36.521Z,4296
2017-04-02T15:38:46.892Z,4256
2017-04-02T15:39:56.914Z,4216
2017-04-02T15:41:07.257Z,4168
2017-04-02T15:42:17.618Z,4124
2017-04-02T15:43:27.966Z,4072
2017-04-02T15:44:38.319Z,4012
2017-04-02T15:45:48.670Z,3972
2017-04-02T15:46:58.704Z,3924
2017-04-02T15:48:09.063Z,3880
2017-04-02T15:49:19.121Z,3852
2017-04-02T15:50:29.458Z,3804
2017-04-02T15:51:39.510Z,3752
2017-04-02T15:52:49.877Z,3712
2017-04-02T15:53:59.609Z,3660
2017-04-02T15:55:09.647Z,3604
2017-04-02T15:56:20.028Z,3524
2017-04-02T15:57:30.387Z,3484
2017-04-02T15:58:40.740Z,3432
2017-04-02T15:59:50.844Z,3384
2017-04-02T16:01:00.902Z,3324
2017-04-02T16:02:10.960Z,3288
2017-04-02T16:03:21.347Z,3244
2017-04-02T16:04:31.700Z,3208
2017-04-02T16:05:41.765Z,3168
2017-04-02T16:06:51.819Z,3112
2017-04-02T16:08:02.172Z,3068
2017-04-02T16:09:12.529Z,3008
2017-04-02T16:10:22.894Z,2964
2017-04-02T16:11:32.937Z,2916
2017-04-02T16:12:43.353Z,2868
2017-04-02T16:13:53.414Z,2828
2017-04-02T16:15:03.785Z,2776
2017-04-02T16:16:14.155Z,2724
2017-04-02T16:17:24.511Z,2672
2017-04-02T16:18:34.555Z,2616
2017-04-02T16:19:44.926Z,2556
2017-04-02T16:20:55.273Z,2516
2017-04-02T16:22:05.665Z,2476
2017-04-02T16:23:15.719Z,2432
2017-04-02T16:24:25.771Z,2380
2017-04-02T16:25:35.814Z,2332
2017-04-02T16:26:45.881Z,2288
2017-04-02T16:27:55.924Z,2236
2017-04-02T16:29:06.282Z,2180
2017-04-02T16:30:16.682Z,2128
2017-04-02T16:31:26.410Z,2076
2017-04-02T16:32:36.764Z,2024
2017-04-02T16:33:47.102Z,1968